Time;durP1;ratioP1;P1;durP2;ratioP2;P2;SDS_P1;SDS_P2;PMS_P1;PMS_P2;Temp;Humidity;BMP_temperature;BMP_pressure;BME280_temperature;BME280_humidity;BME280_pressure;Samples;Min_cycle;Max_cycle;Signal;HPM_P1;HPM_P2
2020/12/11 00:00:25;;;;;;;50.40;19.40;;;;;;;2.39;100.00;97238.73;3725907;78;43371;-20
2020/12/11 00:05:31;;;;;;;46.60;18.00;;;;;;;2.36;100.00;97234.53;3640674;80;44004;-20
2020/12/11 00:10:37;;;;;;;46.90;18.23;;;;;;;2.39;100.00;97230.75;3727219;77;43329;-20
2020/12/11 00:15:44;;;;;;;45.63;18.23;;;;;;;2.40;100.00;97225.32;3730062;79;43426;-20
2020/12/11 00:20:50;;;;;;;42.10;18.03;;;;;;;2.41;100.00;97220.33;3618728;80;43756;-20
2020/12/11 00:25:58;;;;;;;40.20;17.23;;;;;;;2.39;100.00;97224.97;3737038;77;44185;-21
2020/12/11 00:31:04;;;;;;;38.97;16.60;;;;;;;2.42;100.00;97224.66;3748759;78;43630;-20
2020/12/11 00:36:13;;;;;;;37.13;16.43;;;;;;;2.41;100.00;97222.98;3738544;78;44204;-21
2020/12/11 00:41:19;;;;;;;37.97;15.23;;;;;;;2.40;100.00;97225.79;3737304;77;43694;-21
2020/12/11 00:46:26;;;;;;;33.57;15.07;;;;;;;2.44;100.00;97225.37;3723368;78;44073;-21
2020/12/11 00:51:33;;;;;;;38.83;16.63;;;;;;;2.46;100.00;97226.08;3736820;78;42928;-21
2020/12/11 00:56:39;;;;;;;42.20;17.43;;;;;;;2.49;100.00;97228.11;3738347;77;43473;-21
2020/12/11 01:01:45;;;;;;;35.07;15.23;;;;;;;2.48;100.00;97226.42;3725479;78;44022;-20
2020/12/11 01:06:51;;;;;;;37.50;15.47;;;;;;;2.46;100.00;97224.75;3707836;79;43682;-20
2020/12/11 01:11:58;;;;;;;34.53;15.40;;;;;;;2.46;100.00;97226.08;3709809;77;43319;-21
2020/12/11 01:17:03;;;;;;;36.17;15.23;;;;;;;2.43;100.00;97229.00;3643576;80;43116;-20
2020/12/11 01:22:09;;;;;;;34.77;15.63;;;;;;;2.44;100.00;97220.56;3713182;78;44067;-21
2020/12/11 01:27:15;;;;;;;35.20;15.03;;;;;;;2.44;100.00;97217.39;3739567;77;44038;-21
2020/12/11 01:32:21;;;;;;;31.93;15.20;;;;;;;2.46;100.00;97217.28;3602334;81;44118;-21
2020/12/11 01:37:27;;;;;;;34.80;14.63;;;;;;;2.47;100.00;97216.27;3688964;79;44070;-20
2020/12/11 01:42:33;;;;;;;33.90;15.10;;;;;;;2.48;100.00;97206.48;3716398;78;43714;-21
2020/12/11 01:47:40;;;;;;;33.37;13.90;;;;;;;2.48;100.00;97206.48;3694402;79;44575;-21
2020/12/11 01:52:46;;;;;;;32.60;13.93;;;;;;;2.46;100.00;97195.50;3632469;80;43701;-21
2020/12/11 01:57:56;;;;;;;34.30;15.60;;;;;;;2.45;100.00;97185.85;3689795;78;44002;-21
2020/12/11 02:03:06;;;;;;;34.50;14.97;;;;;;;2.46;100.00;97185.38;3695652;79;43431;-21
2020/12/11 02:08:13;;;;;;;34.30;14.23;;;;;;;2.45;100.00;97189.84;3702246;79;43695;-21
2020/12/11 02:13:19;;;;;;;32.20;14.43;;;;;;;2.44;100.00;97190.81;3690376;78;44138;-20
2020/12/11 02:18:27;;;;;;;27.70;13.57;;;;;;;2.46;100.00;97181.39;3684278;79;44112;-21
2020/12/11 02:23:33;;;;;;;29.70;13.63;;;;;;;2.46;100.00;97170.25;3683711;79;43405;-20
2020/12/11 02:28:39;;;;;;;27.63;12.57;;;;;;;2.46;100.00;97155.63;3691920;78;44085;-21
2020/12/11 02:33:45;;;;;;;26.47;12.67;;;;;;;2.46;100.00;97152.97;3640629;80;43433;-20
2020/12/11 02:38:51;;;;;;;29.87;13.27;;;;;;;2.45;100.00;97145.16;3746681;77;44025;-21
2020/12/11 02:43:57;;;;;;;28.20;13.57;;;;;;;2.44;100.00;97127.02;3747435;77;44131;-21
2020/12/11 02:49:03;;;;;;;27.47;12.20;;;;;;;2.44;100.00;97129.67;3718446;79;43467;-21
2020/12/11 02:54:09;;;;;;;27.43;13.13;;;;;;;2.43;100.00;97122.68;3705438;77;43697;-20
2020/12/11 02:59:14;;;;;;;31.17;14.00;;;;;;;2.44;100.00;97125.69;3602921;81;43334;-21
2020/12/11 03:04:20;;;;;;;30.13;13.40;;;;;;;2.43;100.00;97120.53;3731499;78;44017;-20
2020/12/11 03:09:26;;;;;;;26.97;12.73;;;;;;;2.44;100.00;97120.37;3738576;77;43104;-21
2020/12/11 03:14:32;;;;;;;26.77;12.40;;;;;;;2.48;100.00;97112.95;3728084;78;44430;-21
2020/12/11 03:19:38;;;;;;;29.43;13.03;;;;;;;2.50;100.00;97104.84;3724582;78;43997;-21
2020/12/11 03:24:44;;;;;;;28.70;12.50;;;;;;;2.52;100.00;97101.56;3741302;77;44071;-21
2020/12/11 03:29:49;;;;;;;28.33;12.80;;;;;;;2.52;100.00;97094.91;3735013;77;43386;-21
2020/12/11 03:34:56;;;;;;;24.70;11.60;;;;;;;2.56;100.00;97089.64;3724674;78;44019;-21
2020/12/11 03:40:04;;;;;;;20.77;10.53;;;;;;;2.54;100.00;97075.65;3742659;77;44109;-21
2020/12/11 03:45:13;;;;;;;24.17;11.27;;;;;;;2.54;100.00;97065.02;3721064;77;26389;-21
2020/12/11 03:50:19;;;;;;;21.90;10.53;;;;;;;2.55;100.00;97058.72;3729664;78;44509;-20
2020/12/11 03:55:24;;;;;;;19.63;9.97;;;;;;;2.52;100.00;97051.87;3670644;79;44079;-20
2020/12/11 04:00:31;;;;;;;20.50;10.13;;;;;;;2.51;100.00;97052.03;3755216;78;43709;-20
2020/12/11 04:05:37;;;;;;;18.13;9.97;;;;;;;2.53;100.00;97051.41;3718240;77;44367;-22
2020/12/11 04:10:43;;;;;;;16.20;9.47;;;;;;;2.48;100.00;97038.52;3724524;78;43588;-21
2020/12/11 04:15:50;;;;;;;18.30;8.83;;;;;;;2.52;100.00;97029.79;3709661;79;42774;-27
2020/12/11 04:20:57;;;;;;;16.27;9.20;;;;;;;2.51;100.00;97021.47;3617142;80;43326;-26
2020/12/11 04:26:04;;;;;;;12.57;7.60;;;;;;;2.48;100.00;97021.75;3726455;78;44003;-26
2020/12/11 04:31:10;;;;;;;13.23;7.33;;;;;;;2.51;100.00;97024.12;3736013;78;43718;-25
2020/12/11 04:36:17;;;;;;;13.30;8.00;;;;;;;2.47;100.00;97019.56;3733320;77;43401;-26
2020/12/11 04:41:25;;;;;;;14.33;7.80;;;;;;;2.49;100.00;97013.61;3735472;77;43422;-26
2020/12/11 04:46:33;;;;;;;14.13;7.40;;;;;;;2.47;100.00;97011.59;3712794;78;43386;-26
2020/12/11 04:51:44;;;;;;;12.10;7.17;;;;;;;2.48;100.00;97008.45;3738281;77;43064;-26
2020/12/11 04:56:52;;;;;;;13.50;8.13;;;;;;;2.48;100.00;97000.48;3726737;78;43468;-26
2020/12/11 05:02:00;;;;;;;13.97;7.90;;;;;;;2.48;100.00;96995.16;3720560;77;44007;-26
2020/12/11 05:07:05;;;;;;;12.60;7.17;;;;;;;2.45;100.00;96987.82;3726354;77;43770;-26
2020/12/11 05:12:15;;;;;;;12.97;8.03;;;;;;;2.45;100.00;96983.83;3711049;78;43331;-25
2020/12/11 05:17:28;;;;;;;14.17;7.90;;;;;;;2.46;100.00;96988.17;3716714;78;44410;-26
2020/12/11 05:22:35;;;;;;;14.00;8.40;;;;;;;2.47;100.00;96982.34;3745312;77;43484;-26
2020/12/11 05:27:42;;;;;;;11.17;6.73;;;;;;;2.43;100.00;96972.50;3714376;78;44423;-26
2020/12/11 05:32:49;;;;;;;12.83;8.07;;;;;;;2.43;100.00;96973.84;3697635;78;43122;-26
2020/12/11 05:37:58;;;;;;;11.83;7.43;;;;;;;2.45;100.00;96965.73;3704692;78;43717;-26
2020/12/11 05:43:15;;;;;;;12.13;7.57;;;;;;;2.46;100.00;96966.91;3714585;79;44441;-26
2020/12/11 05:48:22;;;;;;;12.47;7.40;;;;;;;2.46;100.00;96968.73;3681494;79;43109;-25
2020/12/11 05:53:30;;;;;;;14.10;7.67;;;;;;;2.43;100.00;96963.20;3711371;78;43033;-26
2020/12/11 05:58:37;;;;;;;13.17;7.90;;;;;;;2.39;100.00;96949.88;3691621;79;44055;-26
2020/12/11 06:03:43;;;;;;;14.47;8.10;;;;;;;2.41;100.00;96945.73;3669716;79;43431;-26
2020/12/11 06:08:50;;;;;;;14.10;7.83;;;;;;;2.40;100.00;96943.58;3687791;78;43350;-26
2020/12/11 06:13:58;;;;;;;14.33;8.40;;;;;;;2.39;100.00;96939.72;3679196;79;43703;-26
2020/12/11 06:19:06;;;;;;;14.03;8.13;;;;;;;2.37;100.00;96935.04;3684726;79;43394;-26
2020/12/11 06:24:29;;;;;;;12.53;7.70;;;;;;;2.38;100.00;96929.59;3706306;78;43135;-26
2020/12/11 06:29:39;;;;;;;13.30;7.93;;;;;;;2.37;100.00;96923.94;3688288;79;43725;-26
2020/12/11 06:34:44;;;;;;;13.57;8.03;;;;;;;2.37;100.00;96929.73;3709301;79;44510;-26
2020/12/11 06:39:50;;;;;;;14.03;7.90;;;;;;;2.35;100.00;96923.23;3735863;78;43553;-23
2020/12/11 06:44:59;;;;;;;14.57;8.57;;;;;;;2.33;100.00;96926.53;3589218;82;42822;-26
2020/12/11 06:50:10;;;;;;;15.53;9.77;;;;;;;2.31;100.00;96928.49;3690479;79;43356;-26
2020/12/11 06:55:15;;;;;;;17.03;10.17;;;;;;;2.31;100.00;96929.81;3709341;78;43674;-26
2020/12/11 07:00:38;;;;;;;18.07;9.97;;;;;;;2.31;100.00;96939.97;3716424;79;42852;-26
2020/12/11 07:05:44;;;;;;;18.97;10.37;;;;;;;2.31;100.00;96932.47;3679076;79;44075;-25
2020/12/11 07:10:50;;;;;;;18.70;10.47;;;;;;;2.34;100.00;96936.18;3715390;78;43727;-26
2020/12/11 07:16:01;;;;;;;17.37;10.27;;;;;;;2.29;100.00;96935.80;3687830;79;42899;-26
2020/12/11 07:21:06;;;;;;;19.20;10.40;;;;;;;2.27;100.00;96937.75;3721615;79;44031;-26
2020/12/11 07:26:14;;;;;;;16.83;10.50;;;;;;;2.28;100.00;96936.78;3693308;78;44022;-26
2020/12/11 07:31:21;;;;;;;17.13;9.70;;;;;;;2.28;100.00;96946.90;3691421;78;44044;-26
2020/12/11 07:36:28;;;;;;;19.43;10.67;;;;;;;2.30;100.00;96941.43;3736606;77;44067;-25
2020/12/11 07:41:34;;;;;;;16.50;9.27;;;;;;;2.27;100.00;96933.77;3725819;77;44099;-26
2020/12/11 07:46:43;;;;;;;16.57;9.60;;;;;;;2.22;100.00;96930.23;3727183;79;44071;-25
2020/12/11 07:51:50;;;;;;;19.27;10.10;;;;;;;2.25;100.00;96931.75;3755380;77;43148;-26
2020/12/11 07:56:57;;;;;;;13.87;8.67;;;;;;;2.25;100.00;96927.77;3726939;79;42829;-26
2020/12/11 08:02:04;;;;;;;17.20;9.20;;;;;;;2.23;100.00;96917.29;3729198;79;43709;-25
2020/12/11 08:07:13;;;;;;;16.93;9.30;;;;;;;2.20;100.00;96912.73;3743624;77;43694;-25
2020/12/11 08:12:22;;;;;;;15.30;9.07;;;;;;;2.23;100.00;96903.15;3580608;81;43116;-25
2020/12/11 08:17:30;;;;;;;17.03;9.20;;;;;;;2.25;100.00;96893.22;3722024;79;44003;-26
2020/12/11 08:22:37;;;;;;;16.27;9.70;;;;;;;2.28;100.00;96891.60;3706586;77;43715;-26
2020/12/11 08:27:42;;;;;;;16.33;9.40;;;;;;;2.26;100.00;96884.27;3717014;79;44409;-25
2020/12/11 08:32:49;;;;;;;16.03;9.30;;;;;;;2.17;100.00;96877.18;3695619;79;44082;-25
2020/12/11 08:37:56;;;;;;;14.23;8.80;;;;;;;2.19;100.00;96888.47;3710552;79;43353;-25
2020/12/11 08:43:14;;;;;;;14.53;8.93;;;;;;;2.21;100.00;96891.83;3689415;79;43767;-25
2020/12/11 08:48:28;;;;;;;13.87;8.83;;;;;;;2.21;100.00;96888.70;3697161;79;44125;-26
2020/12/11 08:53:34;;;;;;;13.20;8.33;;;;;;;2.25;100.00;96878.61;3704759;79;43410;-25
2020/12/11 08:58:40;;;;;;;13.93;8.27;;;;;;;2.27;100.00;96883.28;3702572;79;43703;-25
2020/12/11 09:03:46;;;;;;;14.33;8.87;;;;;;;2.17;100.00;96885.97;3707233;79;44144;-25
2020/12/11 09:08:52;;;;;;;13.27;8.10;;;;;;;2.29;100.00;96883.98;3699295;79;43483;-26
2020/12/11 09:13:58;;;;;;;11.73;7.53;;;;;;;2.22;100.00;96874.43;3691627;79;43226;-26
2020/12/11 09:19:03;;;;;;;11.47;6.97;;;;;;;2.19;100.00;96860.11;3697089;79;43690;-25
2020/12/11 09:24:10;;;;;;;9.70;6.40;;;;;;;2.18;100.00;96861.56;3702874;79;44046;-25
2020/12/11 09:29:25;;;;;;;10.60;6.70;;;;;;;2.18;100.00;96857.57;3693511;79;43721;-25
2020/12/11 09:34:24;;;;;;;12.07;6.93;;;;;;;2.24;100.00;96853.84;3699792;79;44764;-26
2020/12/11 09:39:30;;;;;;;12.00;7.37;;;;;;;2.22;100.00;96848.34;3696231;78;44025;-26
2020/12/11 09:44:50;;;;;;;11.40;7.00;;;;;;;2.21;100.00;96837.36;3695730;79;43488;-25
2020/12/11 09:50:04;;;;;;;12.10;7.77;;;;;;;2.21;100.00;96833.38;3683699;79;43402;-25
2020/12/11 09:55:03;;;;;;;12.50;7.90;;;;;;;2.26;100.00;96835.11;3721604;78;43685;-25
2020/12/11 10:00:09;;;;;;;12.03;7.93;;;;;;;2.17;100.00;96838.66;3700610;78;43456;-25
2020/12/11 10:05:15;;;;;;;14.20;8.40;;;;;;;2.28;100.00;96826.50;3690201;79;44077;-25
2020/12/11 10:10:21;;;;;;;13.50;8.20;;;;;;;2.31;100.00;96825.70;3700562;78;43317;-25
2020/12/11 10:15:27;;;;;;;13.13;8.60;;;;;;;2.31;100.00;96810.23;3686336;79;43973;-25
2020/12/11 10:20:34;;;;;;;12.70;7.87;;;;;;;2.29;100.00;96794.97;3692413;79;43865;-25
2020/12/11 10:25:41;;;;;;;13.83;8.70;;;;;;;2.31;100.00;96793.82;3716402;78;44205;-25
2020/12/11 10:30:47;;;;;;;13.70;8.70;;;;;;;2.32;100.00;96788.00;3711197;79;43452;-25
2020/12/11 10:35:53;;;;;;;15.37;9.70;;;;;;;2.36;100.00;96782.73;3677276;79;43519;-25
2020/12/11 10:41:00;;;;;;;15.20;9.07;;;;;;;2.28;100.00;96772.03;3689283;78;44087;-25
2020/12/11 10:46:06;;;;;;;15.60;9.67;;;;;;;2.26;100.00;96758.05;3701744;79;44054;-25
2020/12/11 10:51:14;;;;;;;14.80;8.83;;;;;;;2.32;100.00;96749.47;3674508;79;43723;-26
2020/12/11 10:56:21;;;;;;;13.57;8.87;;;;;;;2.29;100.00;96740.49;3672332;79;43681;-25
2020/12/11 11:01:28;;;;;;;15.37;9.53;;;;;;;2.28;100.00;96738.81;3683353;79;43375;-25
2020/12/11 11:06:38;;;;;;;14.47;8.93;;;;;;;2.36;100.00;96732.72;3699308;78;44003;-25
2020/12/11 11:11:45;;;;;;;17.27;10.27;;;;;;;2.28;100.00;96723.70;3709050;78;44093;-25
2020/12/11 11:22:25;;;;;;;14.80;9.40;;;;;;;2.21;100.00;96712.49;3700897;78;44710;-25
2020/12/11 11:27:33;;;;;;;13.93;8.80;;;;;;;2.28;100.00;96705.61;3679348;79;43319;-25
2020/12/11 11:32:37;;;;;;;14.30;8.57;;;;;;;2.30;100.00;96700.47;3688423;79;44061;-25
2020/12/11 11:37:43;;;;;;;16.30;9.37;;;;;;;2.33;100.00;96702.48;3736019;78;44366;-25
2020/12/11 11:42:49;;;;;;;15.07;9.70;;;;;;;2.29;100.00;96709.94;3683656;79;42948;-25
2020/12/11 11:47:55;;;;;;;15.20;9.33;;;;;;;2.33;100.00;96707.80;3727324;79;44182;-25
2020/12/11 11:53:04;;;;;;;14.83;9.03;;;;;;;2.31;100.00;96696.83;3715745;78;44036;-25
2020/12/11 11:58:11;;;;;;;13.13;8.00;;;;;;;2.25;100.00;96684.64;3683030;79;43718;-25
2020/12/11 12:03:17;;;;;;;13.57;7.93;;;;;;;2.26;100.00;96687.64;3718406;79;43370;-25
2020/12/11 12:08:24;;;;;;;13.93;8.57;;;;;;;2.28;100.00;96686.50;3698243;78;44094;-26
2020/12/11 12:13:30;;;;;;;14.47;8.33;;;;;;;2.34;100.00;96688.22;3684476;79;44101;-25
2020/12/11 12:18:39;;;;;;;12.80;8.07;;;;;;;2.38;100.00;96686.91;3687321;79;43369;-25
2020/12/11 12:27:21;;;;;;;14.40;8.70;;;;;;;2.35;100.00;96672.11;3677607;78;44086;-25
2020/12/11 12:29:10;;;;;;;11.70;7.20;;;;;;;2.39;100.00;96676.62;3679030;79;44006;-25
2020/12/11 12:34:41;;;;;;;13.93;8.80;;;;;;;2.36;100.00;96680.43;3702852;79;44411;-25
2020/12/11 12:40:06;;;;;;;13.47;7.70;;;;;;;2.41;100.00;96678.13;3717069;78;43731;-25
2020/12/11 12:44:58;;;;;;;17.83;8.17;;;;;;;2.46;100.00;96673.20;3667469;79;43619;-25
2020/12/11 12:50:05;;;;;;;14.13;8.93;;;;;;;2.48;100.00;96666.90;3679039;79;44820;-25
2020/12/11 12:55:14;;;;;;;12.33;7.87;;;;;;;2.42;100.00;96661.20;3685346;78;44217;-25
2020/12/11 13:00:24;;;;;;;14.07;8.60;;;;;;;2.50;100.00;96654.30;3693037;79;44217;-26
2020/12/11 13:05:28;;;;;;;13.63;8.57;;;;;;;2.50;100.00;96657.77;3692549;79;44086;-26
2020/12/11 13:10:34;;;;;;;14.43;8.10;;;;;;;2.52;100.00;96645.68;3695978;78;43290;-26
2020/12/11 13:15:40;;;;;;;15.57;8.80;;;;;;;2.59;100.00;96637.41;3685605;79;43431;-27
2020/12/11 13:20:46;;;;;;;15.93;8.70;;;;;;;2.59;100.00;96630.26;3695111;78;43421;-26
2020/12/11 13:31:22;;;;;;;16.67;9.10;;;;;;;2.66;100.00;96634.46;3695437;79;43795;-27
2020/12/11 13:36:28;;;;;;;14.80;8.63;;;;;;;2.64;100.00;96628.49;3700435;78;43708;-26
2020/12/11 13:41:37;;;;;;;15.50;8.93;;;;;;;2.63;100.00;96617.52;3733361;78;44030;-26
2020/12/11 13:46:46;;;;;;;14.93;9.33;;;;;;;2.68;100.00;96623.69;3694345;79;43470;-26
2020/12/11 13:51:52;;;;;;;16.93;9.93;;;;;;;2.75;100.00;96619.41;3719989;78;43996;-26
2020/12/11 13:56:58;;;;;;;14.23;9.03;;;;;;;2.68;100.00;96613.88;3716298;79;43673;-26
2020/12/11 14:02:04;;;;;;;15.13;8.87;;;;;;;2.71;100.00;96598.95;3717435;79;44101;-25
2020/12/11 14:07:10;;;;;;;13.80;9.13;;;;;;;2.72;100.00;96596.63;3637439;81;43456;-26
2020/12/11 14:12:15;;;;;;;15.73;9.43;;;;;;;2.69;100.00;96592.13;3719617;79;43196;-25
2020/12/11 14:17:28;;;;;;;15.80;9.50;;;;;;;2.73;100.00;96589.00;3724752;79;44354;-25
2020/12/11 14:22:35;;;;;;;16.90;9.47;;;;;;;2.73;100.00;96587.66;3713501;78;43387;-25
2020/12/11 14:27:39;;;;;;;17.77;10.23;;;;;;;2.70;100.00;96583.98;3704256;79;44118;-26
2020/12/11 14:32:44;;;;;;;16.70;9.43;;;;;;;2.77;100.00;96590.33;3698883;79;43122;-25
2020/12/11 14:37:51;;;;;;;14.83;9.17;;;;;;;2.64;100.00;96587.28;3693304;79;43381;-25
2020/12/11 14:42:57;;;;;;;16.13;9.33;;;;;;;2.68;100.00;96583.81;3693096;79;43412;-25
2020/12/11 14:48:04;;;;;;;15.20;8.77;;;;;;;2.63;100.00;96582.95;3682181;79;43987;-26
2020/12/11 14:53:11;;;;;;;14.73;8.97;;;;;;;2.70;100.00;96583.98;3689738;78;44093;-25
2020/12/11 14:58:17;;;;;;;12.67;8.00;;;;;;;2.73;100.00;96582.34;3700196;79;43377;-23
2020/12/11 15:03:23;;;;;;;14.30;8.53;;;;;;;2.65;100.00;96586.27;3697206;79;43987;-23
2020/12/11 15:08:30;;;;;;;14.30;8.80;;;;;;;2.60;100.00;96576.10;3685628;78;44508;-26
2020/12/11 15:13:37;;;;;;;13.20;7.57;;;;;;;2.58;100.00;96579.44;3710586;78;43681;-26
2020/12/11 15:18:44;;;;;;;13.17;7.70;;;;;;;2.58;100.00;96577.27;3705485;78;44070;-23
2020/12/11 15:23:51;;;;;;;13.23;8.33;;;;;;;2.52;100.00;96573.41;3707715;78;44075;-23
2020/12/11 15:28:57;;;;;;;14.27;8.60;;;;;;;2.55;100.00;96574.91;3717029;79;44549;-26
2020/12/11 15:34:04;;;;;;;14.53;8.87;;;;;;;2.58;100.00;96569.28;3737166;78;44456;-26
2020/12/11 15:39:11;;;;;;;12.43;7.70;;;;;;;2.55;100.00;96558.48;3737417;77;43754;-23
2020/12/11 15:44:17;;;;;;;14.03;7.87;;;;;;;2.47;100.00;96553.09;3718626;77;43424;-26
2020/12/11 15:49:23;;;;;;;12.10;8.17;;;;;;;2.33;100.00;96550.52;3725702;78;44079;-26
2020/12/11 15:54:29;;;;;;;12.47;7.53;;;;;;;2.33;100.00;96551.84;3754190;77;42968;-25
2020/12/11 15:59:34;;;;;;;13.93;8.33;;;;;;;2.22;100.00;96537.49;3728996;78;43989;-25
2020/12/11 16:04:40;;;;;;;12.80;7.37;;;;;;;2.14;100.00;96542.25;3719657;79;43221;-25
2020/12/11 16:09:46;;;;;;;13.10;7.47;;;;;;;2.02;100.00;96535.03;3738643;77;44165;-25
2020/12/11 16:14:52;;;;;;;11.23;7.33;;;;;;;2.01;100.00;96525.40;3685282;79;43730;-26
2020/12/11 16:19:58;;;;;;;11.20;7.23;;;;;;;1.93;100.00;96519.52;3725405;78;44033;-25
2020/12/11 16:25:04;;;;;;;12.73;7.33;;;;;;;1.93;100.00;96508.08;3732120;77;43996;-25
2020/12/11 16:30:10;;;;;;;12.83;7.90;;;;;;;1.88;100.00;96506.37;3731717;79;43714;-26
2020/12/11 16:35:19;;;;;;;11.93;7.43;;;;;;;1.80;100.00;96506.66;3658355;80;43440;-25
2020/12/11 16:40:25;;;;;;;11.00;7.27;;;;;;;1.77;100.00;96510.09;3745653;77;44002;-25
2020/12/11 16:45:30;;;;;;;12.13;7.23;;;;;;;1.69;100.00;96507.72;3738443;78;43394;-25
2020/12/11 16:50:37;;;;;;;13.27;8.23;;;;;;;1.64;100.00;96509.16;3720095;78;43712;-25
2020/12/11 16:55:44;;;;;;;12.93;7.63;;;;;;;1.62;100.00;96517.77;3716519;77;43976;-25
2020/12/11 17:00:51;;;;;;;12.90;8.00;;;;;;;1.54;100.00;96519.84;3706038;79;44435;-25
2020/12/11 17:11:31;;;;;;;13.23;8.10;;;;;;;1.48;100.00;96519.95;3610210;81;44085;-25
2020/12/11 17:16:38;;;;;;;16.17;9.00;;;;;;;1.45;100.00;96507.02;3731049;79;44019;-25
2020/12/11 17:21:46;;;;;;;13.13;7.93;;;;;;;1.42;100.00;96511.77;3729617;77;43702;-25
2020/12/11 17:26:54;;;;;;;11.97;7.17;;;;;;;1.36;100.00;96500.79;3731966;79;43242;-25
2020/12/11 17:32:29;;;;;;;14.10;8.13;;;;;;;1.32;100.00;96498.59;3738103;79;44173;-25
2020/12/11 17:37:31;;;;;;;14.03;8.47;;;;;;;1.28;100.00;96493.23;3593809;81;43465;-24
2020/12/11 17:42:37;;;;;;;15.97;8.80;;;;;;;1.22;100.00;96485.38;3695762;79;43259;-24
2020/12/11 17:47:43;;;;;;;13.63;8.60;;;;;;;1.17;100.00;96488.49;3694927;79;43686;-25
2020/12/11 17:52:50;;;;;;;15.53;9.00;;;;;;;1.15;100.00;96479.84;3692358;78;43450;-24
2020/12/11 17:57:55;;;;;;;16.60;9.43;;;;;;;1.08;100.00;96476.14;3683778;79;43264;-25
2020/12/11 18:03:02;;;;;;;14.17;8.60;;;;;;;1.05;100.00;96472.45;3704926;79;44054;-24
2020/12/11 18:08:08;;;;;;;14.60;9.57;;;;;;;1.04;100.00;96468.12;3703210;78;44038;-24
2020/12/11 18:13:14;;;;;;;14.67;8.97;;;;;;;0.99;100.00;96465.94;3697311;79;44089;-25
2020/12/11 18:18:19;;;;;;;15.67;9.03;;;;;;;0.96;100.00;96463.57;3690597;79;43490;-25
2020/12/11 18:23:25;;;;;;;15.40;9.23;;;;;;;0.92;100.00;96457.73;3711970;78;44089;-24
2020/12/11 18:28:32;;;;;;;14.67;9.27;;;;;;;0.89;100.00;96452.73;3693883;79;44126;-25
2020/12/11 18:33:38;;;;;;;16.83;9.63;;;;;;;0.94;100.00;96460.73;3692213;79;43451;-24
2020/12/11 18:38:45;;;;;;;16.83;9.40;;;;;;;0.95;100.00;96463.73;3734014;77;43317;-24
2020/12/11 18:43:51;;;;;;;15.93;9.27;;;;;;;0.98;100.00;96469.56;3768388;78;43405;-24
2020/12/11 18:48:57;;;;;;;17.40;10.17;;;;;;;1.01;100.00;96476.38;3773623;77;43407;-24
2020/12/11 18:54:03;;;;;;;17.57;10.27;;;;;;;1.04;100.00;96466.80;3792824;76;42901;-25
2020/12/11 18:59:09;;;;;;;15.43;9.33;;;;;;;1.07;100.00;96458.05;3797821;77;42969;-25
2020/12/11 19:04:17;;;;;;;15.63;9.43;;;;;;;1.09;100.00;96467.20;3800513;77;44026;-25
2020/12/11 19:09:25;;;;;;;15.47;9.57;;;;;;;1.15;100.00;96455.16;3789025;77;43135;-25
2020/12/11 19:14:31;;;;;;;16.90;9.77;;;;;;;1.15;100.00;96457.30;3767118;77;43266;-25
2020/12/11 19:19:37;;;;;;;15.43;9.67;;;;;;;1.07;100.00;96464.68;3797380;77;43420;-26
2020/12/11 19:24:43;;;;;;;15.93;10.33;;;;;;;1.07;100.00;96475.28;3793982;76;44083;-23
2020/12/11 19:29:49;;;;;;;17.87;9.97;;;;;;;1.07;100.00;96473.14;3764723;77;43339;-24
2020/12/11 19:34:54;;;;;;;15.23;9.70;;;;;;;1.07;100.00;96471.81;3800419;77;43055;-23
2020/12/11 19:40:00;;;;;;;15.77;9.77;;;;;;;1.09;100.00;96475.16;3786422;76;43687;-25
2020/12/11 19:45:06;;;;;;;14.27;9.33;;;;;;;1.03;100.00;96472.61;3767921;76;44063;-24
2020/12/11 19:50:12;;;;;;;14.63;8.90;;;;;;;1.02;100.00;96464.79;3752341;77;43126;-26
2020/12/11 19:55:18;;;;;;;17.87;10.47;;;;;;;0.98;100.00;96464.26;3767561;76;43174;-24
2020/12/11 20:00:24;;;;;;;16.27;10.43;;;;;;;0.91;100.00;96448.63;3763556;78;44576;-24
2020/12/11 20:05:29;;;;;;;17.50;10.87;;;;;;;0.89;100.00;96449.26;3769078;76;43691;-24
2020/12/11 20:10:38;;;;;;;18.27;11.03;;;;;;;0.93;100.00;96450.64;3667286;78;43673;-24
2020/12/11 20:15:45;;;;;;;19.07;10.90;;;;;;;0.96;100.00;96448.98;3778794;77;43379;-23
2020/12/11 20:20:50;;;;;;;18.50;10.60;;;;;;;1.00;100.00;96438.94;3773404;78;43563;-24
2020/12/11 20:25:56;;;;;;;19.07;10.93;;;;;;;1.04;100.00;96437.16;3770075;76;44496;-24
2020/12/11 20:31:05;;;;;;;19.27;11.07;;;;;;;1.03;100.00;96432.84;3793296;78;43304;-24
2020/12/11 20:36:14;;;;;;;18.07;11.13;;;;;;;0.99;100.00;96433.30;3760738;76;43682;-24
2020/12/11 20:41:21;;;;;;;17.03;10.97;;;;;;;0.94;100.00;96431.09;3732231;76;43226;-23
2020/12/11 20:46:31;;;;;;;18.33;11.03;;;;;;;0.86;100.00;96442.45;3722845;78;43640;-23
2020/12/11 20:51:39;;;;;;;17.63;11.23;;;;;;;0.86;100.00;96450.40;3727708;77;43719;-23
2020/12/11 20:56:45;;;;;;;17.33;10.87;;;;;;;0.80;100.00;96445.67;3728711;77;43024;-24
2020/12/11 21:01:53;;;;;;;18.10;11.07;;;;;;;0.82;100.00;96451.67;3739364;77;43104;-24
2020/12/11 21:07:00;;;;;;;19.53;11.43;;;;;;;0.88;100.00;96450.23;3631379;79;44121;-23
2020/12/11 21:12:08;;;;;;;17.50;11.10;;;;;;;0.90;100.00;96442.47;3734223;78;44058;-23
2020/12/11 21:17:15;;;;;;;17.87;11.03;;;;;;;0.96;100.00;96444.19;3725086;77;43519;-23
2020/12/11 21:22:21;;;;;;;17.60;11.30;;;;;;;0.92;100.00;96444.98;3631557;79;44026;-23
2020/12/11 21:27:27;;;;;;;19.13;11.40;;;;;;;1.01;100.00;96443.23;3729180;77;44003;-23
2020/12/11 21:32:39;;;;;;;18.63;11.03;;;;;;;1.01;100.00;96442.76;3738500;78;44670;-23
2020/12/11 21:37:42;;;;;;;19.07;11.60;;;;;;;1.03;100.00;96446.09;3729081;77;44304;-23
2020/12/11 21:42:49;;;;;;;16.33;10.83;;;;;;;1.05;100.00;96446.78;3658330;79;44096;-24
2020/12/11 21:47:55;;;;;;;17.57;10.53;;;;;;;1.04;100.00;96437.64;3672357;80;43737;-23
2020/12/11 21:53:01;;;;;;;17.83;11.00;;;;;;;1.03;100.00;96447.42;3681687;79;44049;-24
2020/12/11 21:58:07;;;;;;;18.93;11.23;;;;;;;1.08;100.00;96445.64;3676627;79;43465;-24
2020/12/11 22:03:13;;;;;;;20.10;11.63;;;;;;;1.18;100.00;96447.73;3681940;79;44965;-23
2020/12/11 22:08:19;;;;;;;18.87;11.27;;;;;;;1.23;100.00;96448.59;3676660;79;43304;-23
2020/12/11 22:13:25;;;;;;;20.03;11.53;;;;;;;1.25;100.00;96449.77;3671263;79;44078;-23
2020/12/11 22:18:33;;;;;;;19.37;11.87;;;;;;;1.25;100.00;96456.39;3677339;79;43721;-23
2020/12/11 22:23:40;;;;;;;17.63;11.23;;;;;;;1.31;100.00;96459.78;3688062;79;44079;-23
2020/12/11 22:28:46;;;;;;;19.87;11.73;;;;;;;1.36;100.00;96465.45;3656951;79;44512;-23
2020/12/11 22:33:53;;;;;;;17.53;10.17;;;;;;;1.44;100.00;96460.23;3668225;79;44513;-24
2020/12/11 22:38:59;;;;;;;18.17;11.33;;;;;;;1.47;100.00;96456.44;3689896;77;43669;-23
2020/12/11 22:44:05;;;;;;;18.97;11.43;;;;;;;1.44;100.00;96450.95;3795997;76;44057;-27
2020/12/11 22:49:12;;;;;;;17.37;10.90;;;;;;;1.40;100.00;96447.43;3811893;76;44034;-26
2020/12/11 22:54:18;;;;;;;18.93;11.23;;;;;;;1.41;100.00;96451.75;3805301;76;43685;-24
2020/12/11 22:59:23;;;;;;;17.27;10.83;;;;;;;1.45;100.00;96447.79;3815343;76;43725;-24
2020/12/11 23:04:29;;;;;;;18.30;11.20;;;;;;;1.43;100.00;96441.32;3805184;76;43720;-25
2020/12/11 23:09:37;;;;;;;17.43;11.17;;;;;;;1.44;100.00;96439.01;3799668;76;43711;-25
2020/12/11 23:14:43;;;;;;;18.57;10.63;;;;;;;1.46;100.00;96441.50;3794943;76;43440;-26
2020/12/11 23:19:49;;;;;;;18.50;11.27;;;;;;;1.47;100.00;96436.53;3774358;76;44056;-26
2020/12/11 23:24:55;;;;;;;16.97;10.37;;;;;;;1.45;100.00;96438.50;3813655;76;43373;-26
2020/12/11 23:30:01;;;;;;;16.97;10.27;;;;;;;1.46;100.00;96425.11;3825630;76;44017;-26
2020/12/11 23:35:07;;;;;;;19.77;10.57;;;;;;;1.42;100.00;96419.75;3804202;76;43529;-20
2020/12/11 23:40:14;;;;;;;17.90;10.87;;;;;;;1.48;100.00;96435.05;3811892;76;43740;-20
2020/12/11 23:45:20;;;;;;;16.83;10.63;;;;;;;1.53;100.00;96427.47;3809749;76;43387;-20
2020/12/11 23:50:28;;;;;;;16.73;10.80;;;;;;;1.60;100.00;96422.86;3809169;76;43395;-21
2020/12/11 23:55:34;;;;;;;17.20;10.53;;;;;;;1.56;100.00;96414.38;3800250;77;43485;-21
